Greens Fork, Indiana
Current Conditions -  °F | °C
As of 3:53 PM on Thursday 25 Dec 2014 (Local Time) from KMIE Reporting Station
Overcast Overcast  
Wind Chill: 31°   Ceiling: 2500
Heat Index: 39°   Visibility: 10mi
Dew Point: 31°   Wind: 13mph
Humidity: 73%   Direction: 230°SW
Pressure: 30.08"   Gusts: NA
Location:  39.89°N, 85.04°W
Report Text: KMIE 252053Z 23011KT 10SM OVC025 04/M01 A3008 RMK AO2 SLP189 T00391006 53010
Loading
Personal Weather Stations






























Interactive Weather Map New forecast layout! Learn more

10-Day Weather Forecast

Advertisements
Track Severe Weather on mobile